sensor_id;sensor_type;location;lat;lon;timestamp;pressure;altitude;pressure_sealevel;temperature;humidity
54978;BME280;40873;47.522;19.106;2023-06-04T00:02:24;100627.97;;;13.57;70.79
54978;BME280;40873;47.522;19.106;2023-06-04T00:04:51;100621.91;;;13.55;69.69
54978;BME280;40873;47.522;19.106;2023-06-04T00:07:18;100629.84;;;13.55;71.09
54978;BME280;40873;47.522;19.106;2023-06-04T00:09:45;100634.19;;;13.56;69.01
54978;BME280;40873;47.522;19.106;2023-06-04T00:12:14;100636.22;;;13.65;68.72
54978;BME280;40873;47.522;19.106;2023-06-04T00:14:41;100633.78;;;13.62;69.05
54978;BME280;40873;47.522;19.106;2023-06-04T00:17:09;100636.97;;;13.67;69.20
54978;BME280;40873;47.522;19.106;2023-06-04T00:19:39;100633.59;;;13.65;69.71
54978;BME280;40873;47.522;19.106;2023-06-04T00:22:07;100630.94;;;13.65;69.53
54978;BME280;40873;47.522;19.106;2023-06-04T00:24:37;100633.16;;;13.58;71.05
54978;BME280;40873;47.522;19.106;2023-06-04T00:27:04;100626.88;;;13.59;71.30
54978;BME280;40873;47.522;19.106;2023-06-04T00:29:32;100621.59;;;13.59;71.47
54978;BME280;40873;47.522;19.106;2023-06-04T00:31:59;100616.06;;;13.62;72.27
54978;BME280;40873;47.522;19.106;2023-06-04T00:34:26;100629.75;;;13.56;72.53
54978;BME280;40873;47.522;19.106;2023-06-04T00:36:54;100627.19;;;13.55;72.36
54978;BME280;40873;47.522;19.106;2023-06-04T00:39:21;100626.03;;;13.46;71.72
54978;BME280;40873;47.522;19.106;2023-06-04T00:41:48;100623.06;;;13.51;72.21
54978;BME280;40873;47.522;19.106;2023-06-04T00:44:15;100615.31;;;13.48;72.48
54978;BME280;40873;47.522;19.106;2023-06-04T00:46:42;100617.22;;;13.46;73.15
54978;BME280;40873;47.522;19.106;2023-06-04T00:49:12;100620.09;;;13.42;72.94
54978;BME280;40873;47.522;19.106;2023-06-04T00:51:39;100626.13;;;13.44;73.25
54978;BME280;40873;47.522;19.106;2023-06-04T00:54:07;100618.38;;;13.41;73.37
54978;BME280;40873;47.522;19.106;2023-06-04T00:56:38;100615.28;;;13.35;73.28
54978;BME280;40873;47.522;19.106;2023-06-04T00:59:08;100612.88;;;13.32;73.74
54978;BME280;40873;47.522;19.106;2023-06-04T01:04:34;100615.44;;;13.19;75.76
54978;BME280;40873;47.522;19.106;2023-06-04T01:07:04;100616.28;;;13.20;75.31
54978;BME280;40873;47.522;19.106;2023-06-04T01:09:32;100615.66;;;13.16;73.26
54978;BME280;40873;47.522;19.106;2023-06-04T01:11:59;100621.94;;;13.15;73.62
54978;BME280;40873;47.522;19.106;2023-06-04T01:14:28;100622.84;;;13.14;74.25
54978;BME280;40873;47.522;19.106;2023-06-04T01:16:59;100617.56;;;13.14;74.15
54978;BME280;40873;47.522;19.106;2023-06-04T01:25:16;100623.28;;;13.08;75.15
54978;BME280;40873;47.522;19.106;2023-06-04T01:27:51;100619.69;;;13.09;75.35
54978;BME280;40873;47.522;19.106;2023-06-04T01:30:26;100620.72;;;13.06;74.50
54978;BME280;40873;47.522;19.106;2023-06-04T01:32:55;100610.44;;;13.02;74.82
54978;BME280;40873;47.522;19.106;2023-06-04T01:35:23;100609.59;;;13.01;77.59
54978;BME280;40873;47.522;19.106;2023-06-04T01:37:54;100611.13;;;12.91;78.34
54978;BME280;40873;47.522;19.106;2023-06-04T01:40:22;100616.53;;;12.89;80.73
54978;BME280;40873;47.522;19.106;2023-06-04T01:42:50;100627.44;;;12.85;82.98
54978;BME280;40873;47.522;19.106;2023-06-04T01:45:23;100620.44;;;12.84;84.29
54978;BME280;40873;47.522;19.106;2023-06-04T01:47:51;100619.81;;;12.80;84.20
54978;BME280;40873;47.522;19.106;2023-06-04T01:50:18;100626.78;;;12.81;86.32
54978;BME280;40873;47.522;19.106;2023-06-04T01:52:45;100627.81;;;12.79;83.71
54978;BME280;40873;47.522;19.106;2023-06-04T01:55:14;100620.94;;;12.76;84.00
54978;BME280;40873;47.522;19.106;2023-06-04T01:57:42;100617.34;;;12.77;83.41
54978;BME280;40873;47.522;19.106;2023-06-04T02:00:11;100618.00;;;12.81;82.92
54978;BME280;40873;47.522;19.106;2023-06-04T02:02:43;100617.22;;;12.79;83.54
54978;BME280;40873;47.522;19.106;2023-06-04T02:05:11;100615.66;;;12.76;82.73
54978;BME280;40873;47.522;19.106;2023-06-04T02:07:39;100622.44;;;12.80;83.32
54978;BME280;40873;47.522;19.106;2023-06-04T02:10:11;100625.84;;;12.82;83.48
54978;BME280;40873;47.522;19.106;2023-06-04T02:12:40;100628.59;;;12.81;83.53
54978;BME280;40873;47.522;19.106;2023-06-04T02:15:10;100623.94;;;12.84;84.57
54978;BME280;40873;47.522;19.106;2023-06-04T02:17:37;100614.09;;;12.86;85.04
54978;BME280;40873;47.522;19.106;2023-06-04T02:20:07;100619.41;;;12.86;83.85
54978;BME280;40873;47.522;19.106;2023-06-04T02:22:36;100626.69;;;12.83;83.80
54978;BME280;40873;47.522;19.106;2023-06-04T02:25:04;100627.53;;;12.83;84.76
54978;BME280;40873;47.522;19.106;2023-06-04T02:27:31;100625.09;;;12.80;85.07
54978;BME280;40873;47.522;19.106;2023-06-04T02:29:58;100629.53;;;12.80;84.85
54978;BME280;40873;47.522;19.106;2023-06-04T02:32:25;100638.63;;;12.76;84.55
54978;BME280;40873;47.522;19.106;2023-06-04T02:34:53;100634.56;;;12.70;82.54
54978;BME280;40873;47.522;19.106;2023-06-04T02:37:19;100640.06;;;12.67;85.06
54978;BME280;40873;47.522;19.106;2023-06-04T02:39:46;100639.13;;;12.68;85.81
54978;BME280;40873;47.522;19.106;2023-06-04T02:42:13;100627.78;;;12.66;86.06
54978;BME280;40873;47.522;19.106;2023-06-04T02:44:41;100627.22;;;12.61;85.28
54978;BME280;40873;47.522;19.106;2023-06-04T02:47:08;100634.44;;;12.59;86.63
54978;BME280;40873;47.522;19.106;2023-06-04T02:49:35;100633.66;;;12.57;86.15
54978;BME280;40873;47.522;19.106;2023-06-04T02:52:02;100635.78;;;12.52;87.20
54978;BME280;40873;47.522;19.106;2023-06-04T02:54:29;100630.16;;;12.56;87.69
54978;BME280;40873;47.522;19.106;2023-06-04T02:56:56;100635.56;;;12.55;87.60
54978;BME280;40873;47.522;19.106;2023-06-04T02:59:23;100635.47;;;12.56;87.12
54978;BME280;40873;47.522;19.106;2023-06-04T03:01:50;100626.22;;;12.49;86.91
54978;BME280;40873;47.522;19.106;2023-06-04T03:04:17;100646.63;;;12.47;88.23
54978;BME280;40873;47.522;19.106;2023-06-04T03:06:44;100643.59;;;12.53;87.14
54978;BME280;40873;47.522;19.106;2023-06-04T03:09:12;100639.53;;;12.48;87.78
54978;BME280;40873;47.522;19.106;2023-06-04T03:11:39;100630.66;;;12.49;87.79
54978;BME280;40873;47.522;19.106;2023-06-04T03:14:09;100628.97;;;12.48;88.50
54978;BME280;40873;47.522;19.106;2023-06-04T03:16:36;100626.31;;;12.48;88.82
54978;BME280;40873;47.522;19.106;2023-06-04T03:19:07;100626.69;;;12.42;88.17
54978;BME280;40873;47.522;19.106;2023-06-04T03:21:35;100623.31;;;12.40;90.45
54978;BME280;40873;47.522;19.106;2023-06-04T03:24:02;100633.03;;;12.39;90.03
54978;BME280;40873;47.522;19.106;2023-06-04T03:26:29;100625.09;;;12.39;90.22
54978;BME280;40873;47.522;19.106;2023-06-04T03:28:57;100639.09;;;12.41;90.38
54978;BME280;40873;47.522;19.106;2023-06-04T03:31:23;100636.34;;;12.43;90.39
54978;BME280;40873;47.522;19.106;2023-06-04T03:33:51;100640.13;;;12.53;90.21
54978;BME280;40873;47.522;19.106;2023-06-04T03:36:17;100643.50;;;12.55;90.55
54978;BME280;40873;47.522;19.106;2023-06-04T03:38:45;100648.22;;;12.50;90.84
54978;BME280;40873;47.522;19.106;2023-06-04T03:41:13;100649.63;;;12.55;91.23
54978;BME280;40873;47.522;19.106;2023-06-04T03:43:40;100650.59;;;12.54;89.74
54978;BME280;40873;47.522;19.106;2023-06-04T03:46:07;100654.16;;;12.68;90.04
54978;BME280;40873;47.522;19.106;2023-06-04T03:48:34;100659.59;;;12.79;89.82
54978;BME280;40873;47.522;19.106;2023-06-04T03:51:01;100660.25;;;12.82;89.44
54978;BME280;40873;47.522;19.106;2023-06-04T03:53:28;100654.66;;;12.87;87.73
54978;BME280;40873;47.522;19.106;2023-06-04T03:55:55;100655.88;;;12.96;86.82
54978;BME280;40873;47.522;19.106;2023-06-04T03:58:22;100657.78;;;13.06;86.87
54978;BME280;40873;47.522;19.106;2023-06-04T04:00:50;100662.41;;;13.17;85.32
54978;BME280;40873;47.522;19.106;2023-06-04T04:03:18;100663.44;;;13.29;85.13
54978;BME280;40873;47.522;19.106;2023-06-04T04:05:46;100663.09;;;13.33;83.56
54978;BME280;40873;47.522;19.106;2023-06-04T04:08:13;100658.75;;;13.32;80.89
54978;BME280;40873;47.522;19.106;2023-06-04T04:10:43;100660.66;;;13.30;81.38
54978;BME280;40873;47.522;19.106;2023-06-04T04:13:10;100667.16;;;13.39;81.27
54978;BME280;40873;47.522;19.106;2023-06-04T04:15:37;100665.69;;;13.48;82.02
54978;BME280;40873;47.522;19.106;2023-06-04T04:18:07;100671.31;;;13.56;81.95
54978;BME280;40873;47.522;19.106;2023-06-04T04:20:35;100671.84;;;13.61;81.32
54978;BME280;40873;47.522;19.106;2023-06-04T04:23:02;100676.00;;;13.65;79.48
54978;BME280;40873;47.522;19.106;2023-06-04T04:25:29;100686.19;;;13.71;79.42
54978;BME280;40873;47.522;19.106;2023-06-04T04:27:56;100686.72;;;13.76;79.98
54978;BME280;40873;47.522;19.106;2023-06-04T04:30:27;100678.88;;;13.75;78.14
54978;BME280;40873;47.522;19.106;2023-06-04T04:32:55;100681.22;;;13.79;78.77
54978;BME280;40873;47.522;19.106;2023-06-04T04:35:23;100681.72;;;13.97;78.27
54978;BME280;40873;47.522;19.106;2023-06-04T04:37:50;100681.72;;;14.10;76.74
54978;BME280;40873;47.522;19.106;2023-06-04T04:40:17;100687.03;;;14.22;77.16
54978;BME280;40873;47.522;19.106;2023-06-04T04:42:44;100686.19;;;14.35;76.03
54978;BME280;40873;47.522;19.106;2023-06-04T04:45:12;100691.69;;;14.57;75.16
54978;BME280;40873;47.522;19.106;2023-06-04T04:47:39;100687.44;;;14.67;75.36
54978;BME280;40873;47.522;19.106;2023-06-04T04:50:06;100686.94;;;14.86;75.99
54978;BME280;40873;47.522;19.106;2023-06-04T04:52:34;100687.16;;;15.07;74.93
54978;BME280;40873;47.522;19.106;2023-06-04T04:55:01;100687.22;;;15.18;73.72
54978;BME280;40873;47.522;19.106;2023-06-04T04:57:28;100684.06;;;15.37;71.24
54978;BME280;40873;47.522;19.106;2023-06-04T04:59:55;100684.06;;;15.48;70.67
54978;BME280;40873;47.522;19.106;2023-06-04T05:02:22;100679.38;;;15.52;70.29
54978;BME280;40873;47.522;19.106;2023-06-04T05:04:49;100685.94;;;15.59;67.65
54978;BME280;40873;47.522;19.106;2023-06-04T05:07:16;100688.38;;;15.62;67.77
54978;BME280;40873;47.522;19.106;2023-06-04T05:09:43;100686.66;;;15.61;69.93
54978;BME280;40873;47.522;19.106;2023-06-04T05:12:11;100685.94;;;15.59;69.17
54978;BME280;40873;47.522;19.106;2023-06-04T05:14:37;100683.63;;;15.54;70.01
54978;BME280;40873;47.522;19.106;2023-06-04T05:17:04;100694.38;;;15.53;68.26
54978;BME280;40873;47.522;19.106;2023-06-04T05:19:33;100691.84;;;15.51;68.27
54978;BME280;40873;47.522;19.106;2023-06-04T05:22:00;100700.03;;;15.48;65.97
54978;BME280;40873;47.522;19.106;2023-06-04T05:24:27;100699.69;;;15.53;64.70
54978;BME280;40873;47.522;19.106;2023-06-04T05:26:55;100694.38;;;15.53;65.49
54978;BME280;40873;47.522;19.106;2023-06-04T05:29:25;100694.38;;;15.53;65.49
54978;BME280;40873;47.522;19.106;2023-06-04T05:31:53;100701.13;;;15.57;66.50
54978;BME280;40873;47.522;19.106;2023-06-04T05:34:19;100711.19;;;15.53;65.63
54978;BME280;40873;47.522;19.106;2023-06-04T05:36:48;100707.00;;;15.62;63.82
54978;BME280;40873;47.522;19.106;2023-06-04T05:39:15;100721.66;;;15.68;63.13
54978;BME280;40873;47.522;19.106;2023-06-04T05:41:42;100719.00;;;15.68;61.77
54978;BME280;40873;47.522;19.106;2023-06-04T05:44:09;100719.72;;;15.70;62.06
54978;BME280;40873;47.522;19.106;2023-06-04T05:46:37;100719.50;;;15.73;61.46
54978;BME280;40873;47.522;19.106;2023-06-04T05:49:03;100718.75;;;15.71;61.35
54978;BME280;40873;47.522;19.106;2023-06-04T05:51:31;100717.81;;;15.83;62.06
54978;BME280;40873;47.522;19.106;2023-06-04T05:53:57;100721.72;;;15.90;61.20
54978;BME280;40873;47.522;19.106;2023-06-04T05:56:25;100715.19;;;15.94;61.65
54978;BME280;40873;47.522;19.106;2023-06-04T05:58:53;100717.84;;;15.94;62.65
54978;BME280;40873;47.522;19.106;2023-06-04T06:01:20;100716.53;;;16.00;62.27
54978;BME280;40873;47.522;19.106;2023-06-04T06:03:48;100719.81;;;16.03;61.19
54978;BME280;40873;47.522;19.106;2023-06-04T06:06:15;100712.31;;;16.08;60.02
54978;BME280;40873;47.522;19.106;2023-06-04T06:08:42;100711.84;;;16.26;59.64
54978;BME280;40873;47.522;19.106;2023-06-04T06:11:10;100712.19;;;16.32;61.07
54978;BME280;40873;47.522;19.106;2023-06-04T06:13:37;100704.69;;;16.60;59.98
54978;BME280;40873;47.522;19.106;2023-06-04T06:16:05;100699.13;;;16.85;57.27
54978;BME280;40873;47.522;19.106;2023-06-04T06:18:32;100704.53;;;17.06;54.32
54978;BME280;40873;47.522;19.106;2023-06-04T06:20:59;100703.97;;;17.23;53.57
54978;BME280;40873;47.522;19.106;2023-06-04T06:23:26;100708.78;;;17.41;54.01
54978;BME280;40873;47.522;19.106;2023-06-04T06:25:54;100713.66;;;17.57;51.33
54978;BME280;40873;47.522;19.106;2023-06-04T06:28:20;100715.56;;;17.66;49.06
54978;BME280;40873;47.522;19.106;2023-06-04T06:30:48;100705.66;;;17.89;48.92
54978;BME280;40873;47.522;19.106;2023-06-04T06:33:15;100712.72;;;17.99;51.09
54978;BME280;40873;47.522;19.106;2023-06-04T06:35:43;100706.19;;;18.13;50.35
54978;BME280;40873;47.522;19.106;2023-06-04T06:38:13;100710.03;;;18.20;49.28
54978;BME280;40873;47.522;19.106;2023-06-04T06:40:44;100715.47;;;18.09;49.38
54978;BME280;40873;47.522;19.106;2023-06-04T06:43:11;100711.34;;;18.05;52.06
54978;BME280;40873;47.522;19.106;2023-06-04T06:45:38;100719.41;;;18.15;50.17
54978;BME280;40873;47.522;19.106;2023-06-04T06:48:05;100711.94;;;18.29;49.72
54978;BME280;40873;47.522;19.106;2023-06-04T06:50:32;100716.31;;;18.40;50.69
54978;BME280;40873;47.522;19.106;2023-06-04T06:53:02;100715.91;;;18.45;49.26
54978;BME280;40873;47.522;19.106;2023-06-04T06:55:30;100725.09;;;18.52;48.89
54978;BME280;40873;47.522;19.106;2023-06-04T06:57:57;100725.78;;;18.54;50.46
54978;BME280;40873;47.522;19.106;2023-06-04T07:00:26;100728.59;;;18.52;49.34
54978;BME280;40873;47.522;19.106;2023-06-04T07:02:56;100739.91;;;18.35;47.79
54978;BME280;40873;47.522;19.106;2023-06-04T07:05:24;100731.22;;;18.43;47.89
54978;BME280;40873;47.522;19.106;2023-06-04T07:07:51;100738.66;;;18.39;48.08
54978;BME280;40873;47.522;19.106;2023-06-04T07:10:21;100729.59;;;18.51;47.09
54978;BME280;40873;47.522;19.106;2023-06-04T07:12:48;100740.59;;;18.58;50.17
54978;BME280;40873;47.522;19.106;2023-06-04T07:15:16;100739.59;;;18.59;50.26
54978;BME280;40873;47.522;19.106;2023-06-04T07:17:42;100745.09;;;18.57;50.52
54978;BME280;40873;47.522;19.106;2023-06-04T07:20:10;100744.41;;;18.65;50.18
54978;BME280;40873;47.522;19.106;2023-06-04T07:22:37;100740.16;;;18.62;49.28
54978;BME280;40873;47.522;19.106;2023-06-04T07:25:05;100742.34;;;18.69;51.49
54978;BME280;40873;47.522;19.106;2023-06-04T07:27:33;100737.16;;;18.77;47.55
54978;BME280;40873;47.522;19.106;2023-06-04T07:30:01;100739.44;;;18.81;50.09
54978;BME280;40873;47.522;19.106;2023-06-04T07:32:30;100733.41;;;18.89;49.51
54978;BME280;40873;47.522;19.106;2023-06-04T07:34:57;100730.47;;;19.11;44.85
54978;BME280;40873;47.522;19.106;2023-06-04T07:37:24;100730.06;;;19.16;44.57
54978;BME280;40873;47.522;19.106;2023-06-04T07:39:51;100741.06;;;19.32;44.23
54978;BME280;40873;47.522;19.106;2023-06-04T07:42:18;100733.22;;;19.50;46.06
54978;BME280;40873;47.522;19.106;2023-06-04T07:44:45;100736.72;;;19.31;42.88
54978;BME280;40873;47.522;19.106;2023-06-04T07:47:12;100734.75;;;19.43;42.86
54978;BME280;40873;47.522;19.106;2023-06-04T07:49:39;100739.84;;;19.56;40.90
54978;BME280;40873;47.522;19.106;2023-06-04T07:52:26;100740.81;;;19.93;41.06
54978;BME280;40873;47.522;19.106;2023-06-04T07:54:54;100740.06;;;20.20;40.88
54978;BME280;40873;47.522;19.106;2023-06-04T07:57:20;100742.38;;;20.43;40.72
54978;BME280;40873;47.522;19.106;2023-06-04T07:59:48;100746.00;;;20.61;42.73
54978;BME280;40873;47.522;19.106;2023-06-04T08:02:18;100741.00;;;20.76;42.64
54978;BME280;40873;47.522;19.106;2023-06-04T08:04:45;100743.19;;;20.90;41.63
54978;BME280;40873;47.522;19.106;2023-06-04T08:07:15;100749.19;;;20.74;39.31
54978;BME280;40873;47.522;19.106;2023-06-04T08:09:42;100750.47;;;20.70;38.47
54978;BME280;40873;47.522;19.106;2023-06-04T08:12:11;100749.16;;;20.47;39.80
54978;BME280;40873;47.522;19.106;2023-06-04T08:14:38;100745.66;;;20.46;39.68
54978;BME280;40873;47.522;19.106;2023-06-04T08:17:05;100756.31;;;20.66;42.20
54978;BME280;40873;47.522;19.106;2023-06-04T08:19:32;100749.69;;;20.60;39.34
54978;BME280;40873;47.522;19.106;2023-06-04T08:21:59;100744.47;;;20.59;41.58
54978;BME280;40873;47.522;19.106;2023-06-04T08:24:28;100741.84;;;20.76;41.51
54978;BME280;40873;47.522;19.106;2023-06-04T08:26:55;100742.78;;;20.85;39.65
54978;BME280;40873;47.522;19.106;2023-06-04T08:29:22;100739.22;;;20.94;37.80
54978;BME280;40873;47.522;19.106;2023-06-04T08:31:49;100742.84;;;21.03;37.14
54978;BME280;40873;47.522;19.106;2023-06-04T08:34:17;100748.38;;;20.92;36.77
54978;BME280;40873;47.522;19.106;2023-06-04T08:36:43;100749.72;;;21.05;37.69
54978;BME280;40873;47.522;19.106;2023-06-04T08:39:11;100751.38;;;21.16;38.80
54978;BME280;40873;47.522;19.106;2023-06-04T08:41:59;100756.81;;;21.24;36.88
54978;BME280;40873;47.522;19.106;2023-06-04T08:44:31;100745.59;;;21.39;36.71
54978;BME280;40873;47.522;19.106;2023-06-04T08:47:03;100745.00;;;21.17;35.54
54978;BME280;40873;47.522;19.106;2023-06-04T08:49:33;100730.88;;;21.43;35.00
54978;BME280;40873;47.522;19.106;2023-06-04T08:52:04;100744.34;;;21.33;35.07
54978;BME280;40873;47.522;19.106;2023-06-04T08:54:33;100733.59;;;21.33;33.88
54978;BME280;40873;47.522;19.106;2023-06-04T08:57:00;100728.94;;;21.53;35.28
54978;BME280;40873;47.522;19.106;2023-06-04T08:59:28;100731.91;;;21.68;34.94
54978;BME280;40873;47.522;19.106;2023-06-04T09:01:55;100730.75;;;21.88;37.04
54978;BME280;40873;47.522;19.106;2023-06-04T09:04:23;100731.06;;;21.85;34.55
54978;BME280;40873;47.522;19.106;2023-06-04T09:06:51;100724.16;;;21.82;36.83
54978;BME280;40873;47.522;19.106;2023-06-04T09:09:19;100738.75;;;21.62;34.84
54978;BME280;40873;47.522;19.106;2023-06-04T09:11:55;100736.47;;;21.31;35.39
54978;BME280;40873;47.522;19.106;2023-06-04T09:14:23;100732.97;;;21.21;35.91
54978;BME280;40873;47.522;19.106;2023-06-04T09:16:52;100728.03;;;20.99;36.84
54978;BME280;40873;47.522;19.106;2023-06-04T09:19:20;100734.22;;;20.99;36.01
54978;BME280;40873;47.522;19.106;2023-06-04T09:21:58;100742.59;;;20.96;35.67
54978;BME280;40873;47.522;19.106;2023-06-04T09:24:39;100733.63;;;21.05;37.39
54978;BME280;40873;47.522;19.106;2023-06-04T09:27:14;100734.63;;;21.04;37.95
54978;BME280;40873;47.522;19.106;2023-06-04T09:29:56;100742.50;;;21.06;37.20
54978;BME280;40873;47.522;19.106;2023-06-04T09:32:24;100739.84;;;21.06;36.03
54978;BME280;40873;47.522;19.106;2023-06-04T09:34:51;100744.03;;;20.91;37.18
54978;BME280;40873;47.522;19.106;2023-06-04T09:37:20;100745.47;;;20.85;36.46
54978;BME280;40873;47.522;19.106;2023-06-04T09:39:55;100735.78;;;21.02;37.11
54978;BME280;40873;47.522;19.106;2023-06-04T09:42:22;100737.56;;;21.11;36.96
54978;BME280;40873;47.522;19.106;2023-06-04T09:44:50;100738.94;;;21.15;37.69
54978;BME280;40873;47.522;19.106;2023-06-04T09:47:17;100731.41;;;21.28;36.45
54978;BME280;40873;47.522;19.106;2023-06-04T09:49:46;100741.66;;;21.33;37.37
54978;BME280;40873;47.522;19.106;2023-06-04T09:52:13;100740.81;;;21.32;35.87
54978;BME280;40873;47.522;19.106;2023-06-04T09:54:41;100735.94;;;21.28;37.41
54978;BME280;40873;47.522;19.106;2023-06-04T09:57:16;100738.97;;;21.33;38.40
54978;BME280;40873;47.522;19.106;2023-06-04T09:59:45;100740.22;;;21.39;36.22
54978;BME280;40873;47.522;19.106;2023-06-04T10:02:22;100733.22;;;21.46;36.43
54978;BME280;40873;47.522;19.106;2023-06-04T10:04:53;100729.31;;;21.40;37.22
54978;BME280;40873;47.522;19.106;2023-06-04T10:07:24;100734.06;;;21.46;37.16
54978;BME280;40873;47.522;19.106;2023-06-04T10:09:53;100734.31;;;21.53;36.85
54978;BME280;40873;47.522;19.106;2023-06-04T10:12:26;100737.22;;;21.59;35.80
54978;BME280;40873;47.522;19.106;2023-06-04T10:15:01;100729.56;;;21.65;37.57
54978;BME280;40873;47.522;19.106;2023-06-04T10:17:30;100744.88;;;21.72;36.18
54978;BME280;40873;47.522;19.106;2023-06-04T10:20:01;100739.34;;;21.74;36.17
54978;BME280;40873;47.522;19.106;2023-06-04T10:22:31;100734.88;;;21.82;36.27
54978;BME280;40873;47.522;19.106;2023-06-04T10:24:59;100737.72;;;21.81;37.27
54978;BME280;40873;47.522;19.106;2023-06-04T10:27:27;100740.47;;;21.89;36.62
54978;BME280;40873;47.522;19.106;2023-06-04T10:29:55;100743.69;;;21.49;35.83
54978;BME280;40873;47.522;19.106;2023-06-04T10:32:22;100745.59;;;21.56;37.25
54978;BME280;40873;47.522;19.106;2023-06-04T10:34:49;100742.69;;;21.50;36.98
54978;BME280;40873;47.522;19.106;2023-06-04T10:37:24;100741.34;;;21.54;37.09
54978;BME280;40873;47.522;19.106;2023-06-04T10:39:53;100737.19;;;21.24;38.09
54978;BME280;40873;47.522;19.106;2023-06-04T10:42:21;100736.00;;;21.36;38.91
54978;BME280;40873;47.522;19.106;2023-06-04T10:44:53;100741.06;;;21.39;39.71
54978;BME280;40873;47.522;19.106;2023-06-04T10:47:28;100741.91;;;21.40;38.61
54978;BME280;40873;47.522;19.106;2023-06-04T10:50:09;100746.28;;;21.58;39.57
54978;BME280;40873;47.522;19.106;2023-06-04T10:52:38;100745.81;;;21.63;38.26
54978;BME280;40873;47.522;19.106;2023-06-04T10:55:07;100740.81;;;21.68;37.46
54978;BME280;40873;47.522;19.106;2023-06-04T10:57:35;100737.34;;;21.94;37.44
54978;BME280;40873;47.522;19.106;2023-06-04T11:00:03;100742.81;;;21.84;37.47
54978;BME280;40873;47.522;19.106;2023-06-04T11:02:36;100737.19;;;22.13;37.02
54978;BME280;40873;47.522;19.106;2023-06-04T11:05:06;100740.16;;;22.10;37.77
54978;BME280;40873;47.522;19.106;2023-06-04T11:07:47;100731.97;;;22.11;36.44
54978;BME280;40873;47.522;19.106;2023-06-04T11:10:16;100734.56;;;22.29;37.95
54978;BME280;40873;47.522;19.106;2023-06-04T11:12:48;100738.06;;;22.48;37.15
54978;BME280;40873;47.522;19.106;2023-06-04T11:15:17;100739.81;;;22.39;36.27
54978;BME280;40873;47.522;19.106;2023-06-04T11:17:55;100734.09;;;22.34;37.01
54978;BME280;40873;47.522;19.106;2023-06-04T11:20:23;100733.13;;;21.91;36.74
54978;BME280;40873;47.522;19.106;2023-06-04T11:22:54;100732.31;;;21.73;36.61
54978;BME280;40873;47.522;19.106;2023-06-04T11:25:24;100739.63;;;21.88;37.63
54978;BME280;40873;47.522;19.106;2023-06-04T11:27:54;100730.84;;;21.78;37.05
54978;BME280;40873;47.522;19.106;2023-06-04T11:30:23;100735.81;;;21.91;38.05
54978;BME280;40873;47.522;19.106;2023-06-04T11:32:50;100728.91;;;21.88;37.54
54978;BME280;40873;47.522;19.106;2023-06-04T11:35:26;100735.25;;;22.05;36.94
54978;BME280;40873;47.522;19.106;2023-06-04T11:37:53;100727.94;;;22.15;37.37
54978;BME280;40873;47.522;19.106;2023-06-04T11:40:22;100735.31;;;22.13;38.37
54978;BME280;40873;47.522;19.106;2023-06-04T11:42:50;100733.84;;;22.19;39.34
54978;BME280;40873;47.522;19.106;2023-06-04T11:45:19;100737.84;;;22.15;36.79
54978;BME280;40873;47.522;19.106;2023-06-04T11:47:48;100739.03;;;22.12;36.90
54978;BME280;40873;47.522;19.106;2023-06-04T11:50:16;100727.25;;;22.13;38.14
54978;BME280;40873;47.522;19.106;2023-06-04T11:52:43;100730.25;;;22.10;36.81
54978;BME280;40873;47.522;19.106;2023-06-04T11:55:11;100730.84;;;22.04;36.66
54978;BME280;40873;47.522;19.106;2023-06-04T11:57:39;100738.31;;;22.10;39.99
54978;BME280;40873;47.522;19.106;2023-06-04T12:00:07;100740.63;;;22.05;38.86
54978;BME280;40873;47.522;19.106;2023-06-04T12:02:48;100739.91;;;22.03;40.94
54978;BME280;40873;47.522;19.106;2023-06-04T12:05:17;100738.56;;;21.99;39.90
54978;BME280;40873;47.522;19.106;2023-06-04T12:07:50;100738.56;;;21.99;38.40
54978;BME280;40873;47.522;19.106;2023-06-04T12:10:19;100741.91;;;22.01;38.41
54978;BME280;40873;47.522;19.106;2023-06-04T12:12:53;100739.06;;;22.03;37.50
54978;BME280;40873;47.522;19.106;2023-06-04T12:15:21;100741.75;;;22.03;40.81
54978;BME280;40873;47.522;19.106;2023-06-04T12:17:50;100737.34;;;21.94;38.63
54978;BME280;40873;47.522;19.106;2023-06-04T12:20:34;100745.06;;;21.97;39.81
54978;BME280;40873;47.522;19.106;2023-06-04T12:23:04;100736.03;;;21.98;39.11
54978;BME280;40873;47.522;19.106;2023-06-04T12:25:32;100733.19;;;21.99;37.38
54978;BME280;40873;47.522;19.106;2023-06-04T12:28:01;100736.53;;;22.01;37.39
54978;BME280;40873;47.522;19.106;2023-06-04T12:30:39;100737.16;;;21.95;40.10
54978;BME280;40873;47.522;19.106;2023-06-04T12:33:07;100738.19;;;21.94;38.12
54978;BME280;40873;47.522;19.106;2023-06-04T12:35:35;100739.06;;;22.03;38.87
54978;BME280;40873;47.522;19.106;2023-06-04T12:38:03;100740.75;;;22.04;38.70
54978;BME280;40873;47.522;19.106;2023-06-04T12:40:33;100734.50;;;22.13;38.89
54978;BME280;40873;47.522;19.106;2023-06-04T12:43:00;100745.13;;;22.23;37.31
54978;BME280;40873;47.522;19.106;2023-06-04T12:45:27;100742.81;;;22.28;36.96
54978;BME280;40873;47.522;19.106;2023-06-04T12:47:54;100734.78;;;22.36;39.98
54978;BME280;40873;47.522;19.106;2023-06-04T12:50:21;100725.41;;;22.40;38.98
54978;BME280;40873;47.522;19.106;2023-06-04T12:52:48;100735.19;;;22.49;38.14
54978;BME280;40873;47.522;19.106;2023-06-04T12:55:15;100719.75;;;22.51;39.71
54978;BME280;40873;47.522;19.106;2023-06-04T12:57:42;100724.81;;;22.54;39.64